sensor_id;sensor_type;location;lat;lon;timestamp;pressure;altitude;pressure_sealevel;temperature;humidity
34034;BME280;63481;52.588;22.472;2024-03-22T00:04:01;100232.77;;;5.90;100.00
34034;BME280;63481;52.588;22.472;2024-03-22T00:09:03;100228.74;;;5.90;100.00
34034;BME280;63481;52.588;22.472;2024-03-22T00:14:05;100227.30;;;5.96;100.00
34034;BME280;63481;52.588;22.472;2024-03-22T00:19:07;100225.97;;;5.94;100.00
34034;BME280;63481;52.588;22.472;2024-03-22T00:24:08;100230.80;;;5.98;100.00
34034;BME280;63481;52.588;22.472;2024-03-22T00:29:10;100228.76;;;5.97;100.00
34034;BME280;63481;52.588;22.472;2024-03-22T00:34:11;100231.13;;;5.98;100.00
34034;BME280;63481;52.588;22.472;2024-03-22T00:39:13;100230.20;;;6.00;100.00
34034;BME280;63481;52.588;22.472;2024-03-22T00:44:15;100225.21;;;6.10;100.00
34034;BME280;63481;52.588;22.472;2024-03-22T00:49:16;100225.07;;;6.08;100.00
34034;BME280;63481;52.588;22.472;2024-03-22T00:54:18;100224.50;;;6.04;100.00
34034;BME280;63481;52.588;22.472;2024-03-22T00:59:20;100217.46;;;5.99;100.00
34034;BME280;63481;52.588;22.472;2024-03-22T01:04:22;100217.92;;;6.14;100.00
34034;BME280;63481;52.588;22.472;2024-03-22T01:09:23;100215.94;;;6.08;100.00
34034;BME280;63481;52.588;22.472;2024-03-22T01:14:25;100218.40;;;6.02;100.00
34034;BME280;63481;52.588;22.472;2024-03-22T01:19:28;100209.42;;;6.03;100.00
34034;BME280;63481;52.588;22.472;2024-03-22T01:24:29;100208.53;;;6.06;100.00
34034;BME280;63481;52.588;22.472;2024-03-22T01:29:31;100208.95;;;6.01;100.00
34034;BME280;63481;52.588;22.472;2024-03-22T01:34:33;100205.76;;;6.10;100.00
34034;BME280;63481;52.588;22.472;2024-03-22T01:39:36;100208.04;;;6.10;100.00
34034;BME280;63481;52.588;22.472;2024-03-22T01:44:38;100210.66;;;6.01;100.00
34034;BME280;63481;52.588;22.472;2024-03-22T01:49:39;100207.00;;;6.07;100.00
34034;BME280;63481;52.588;22.472;2024-03-22T01:54:41;100206.72;;;6.12;100.00
34034;BME280;63481;52.588;22.472;2024-03-22T01:59:46;100204.84;;;6.13;100.00
34034;BME280;63481;52.588;22.472;2024-03-22T02:04:52;100203.09;;;6.09;100.00
34034;BME280;63481;52.588;22.472;2024-03-22T02:09:54;100194.91;;;6.21;100.00
34034;BME280;63481;52.588;22.472;2024-03-22T02:14:58;100194.57;;;6.14;100.00
34034;BME280;63481;52.588;22.472;2024-03-22T02:20:00;100195.80;;;6.05;100.00
34034;BME280;63481;52.588;22.472;2024-03-22T02:25:03;100193.19;;;6.16;100.00
34034;BME280;63481;52.588;22.472;2024-03-22T02:30:05;100191.61;;;6.22;100.00
34034;BME280;63481;52.588;22.472;2024-03-22T02:35:07;100194.18;;;6.14;100.00
34034;BME280;63481;52.588;22.472;2024-03-22T02:40:09;100197.79;;;6.13;100.00
34034;BME280;63481;52.588;22.472;2024-03-22T02:45:11;100196.65;;;6.24;100.00
34034;BME280;63481;52.588;22.472;2024-03-22T02:50:13;100197.06;;;6.19;100.00
34034;BME280;63481;52.588;22.472;2024-03-22T02:55:14;100196.83;;;6.27;100.00
34034;BME280;63481;52.588;22.472;2024-03-22T03:00:16;100198.84;;;6.28;100.00
34034;BME280;63481;52.588;22.472;2024-03-22T03:05:18;100199.00;;;6.33;100.00
34034;BME280;63481;52.588;22.472;2024-03-22T03:10:19;100202.88;;;6.26;100.00
34034;BME280;63481;52.588;22.472;2024-03-22T03:15:21;100206.18;;;6.21;100.00
34034;BME280;63481;52.588;22.472;2024-03-22T03:20:23;100211.64;;;6.26;100.00
34034;BME280;63481;52.588;22.472;2024-03-22T03:25:25;100214.77;;;6.20;100.00
34034;BME280;63481;52.588;22.472;2024-03-22T03:30:27;100218.63;;;6.13;100.00
34034;BME280;63481;52.588;22.472;2024-03-22T03:35:29;100219.00;;;5.96;100.00
34034;BME280;63481;52.588;22.472;2024-03-22T03:40:30;100226.84;;;6.00;100.00
34034;BME280;63481;52.588;22.472;2024-03-22T03:45:32;100233.00;;;5.85;100.00
34034;BME280;63481;52.588;22.472;2024-03-22T03:50:34;100232.67;;;5.79;100.00
34034;BME280;63481;52.588;22.472;2024-03-22T03:55:35;100223.84;;;5.56;100.00
34034;BME280;63481;52.588;22.472;2024-03-22T04:00:38;100225.12;;;5.48;100.00
34034;BME280;63481;52.588;22.472;2024-03-22T04:05:39;100221.61;;;5.35;100.00
34034;BME280;63481;52.588;22.472;2024-03-22T04:10:41;100219.08;;;5.33;100.00
34034;BME280;63481;52.588;22.472;2024-03-22T04:15:43;100221.77;;;5.32;100.00
34034;BME280;63481;52.588;22.472;2024-03-22T04:20:58;100219.93;;;5.41;100.00
34034;BME280;63481;52.588;22.472;2024-03-22T04:26:00;100212.66;;;5.39;100.00
34034;BME280;63481;52.588;22.472;2024-03-22T04:31:05;100209.73;;;5.33;100.00
34034;BME280;63481;52.588;22.472;2024-03-22T04:36:07;100211.73;;;5.23;100.00
34034;BME280;63481;52.588;22.472;2024-03-22T04:41:11;100218.05;;;5.26;100.00
34034;BME280;63481;52.588;22.472;2024-03-22T04:46:12;100222.08;;;5.28;100.00
34034;BME280;63481;52.588;22.472;2024-03-22T04:51:14;100226.55;;;5.35;100.00
34034;BME280;63481;52.588;22.472;2024-03-22T04:56:16;100230.41;;;5.57;100.00
34034;BME280;63481;52.588;22.472;2024-03-22T05:01:18;100234.86;;;5.55;100.00
34034;BME280;63481;52.588;22.472;2024-03-22T05:06:19;100236.36;;;5.47;100.00
34034;BME280;63481;52.588;22.472;2024-03-22T05:11:21;100239.88;;;5.44;100.00
34034;BME280;63481;52.588;22.472;2024-03-22T05:16:23;100231.30;;;5.46;100.00
34034;BME280;63481;52.588;22.472;2024-03-22T05:21:25;100240.95;;;5.53;100.00
34034;BME280;63481;52.588;22.472;2024-03-22T05:26:26;100242.59;;;5.66;100.00
34034;BME280;63481;52.588;22.472;2024-03-22T05:31:28;100242.99;;;5.88;100.00
34034;BME280;63481;52.588;22.472;2024-03-22T05:36:30;100245.15;;;6.16;100.00
34034;BME280;63481;52.588;22.472;2024-03-22T05:41:32;100243.69;;;6.43;100.00
34034;BME280;63481;52.588;22.472;2024-03-22T05:46:33;100250.33;;;6.26;100.00
34034;BME280;63481;52.588;22.472;2024-03-22T05:51:35;100250.52;;;6.32;100.00
34034;BME280;63481;52.588;22.472;2024-03-22T05:56:37;100242.98;;;6.37;100.00
34034;BME280;63481;52.588;22.472;2024-03-22T06:01:38;100239.98;;;6.24;100.00
34034;BME280;63481;52.588;22.472;2024-03-22T06:06:40;100228.61;;;6.23;100.00
34034;BME280;63481;52.588;22.472;2024-03-22T06:11:42;100218.08;;;6.44;100.00
34034;BME280;63481;52.588;22.472;2024-03-22T06:16:45;100209.55;;;6.57;100.00
34034;BME280;63481;52.588;22.472;2024-03-22T06:21:46;100207.17;;;6.92;100.00
34034;BME280;63481;52.588;22.472;2024-03-22T06:26:48;100205.80;;;7.09;100.00
34034;BME280;63481;52.588;22.472;2024-03-22T06:31:51;100206.69;;;7.12;100.00
34034;BME280;63481;52.588;22.472;2024-03-22T06:36:53;100209.46;;;6.82;100.00
34034;BME280;63481;52.588;22.472;2024-03-22T06:41:55;100209.89;;;6.95;100.00
34034;BME280;63481;52.588;22.472;2024-03-22T06:46:57;100207.42;;;7.12;100.00
34034;BME280;63481;52.588;22.472;2024-03-22T06:51:58;100212.85;;;7.26;100.00
34034;BME280;63481;52.588;22.472;2024-03-22T06:57:00;100212.59;;;7.21;100.00
34034;BME280;63481;52.588;22.472;2024-03-22T07:02:02;100216.95;;;7.30;100.00
34034;BME280;63481;52.588;22.472;2024-03-22T07:07:04;100224.06;;;7.12;100.00
34034;BME280;63481;52.588;22.472;2024-03-22T07:12:06;100213.17;;;7.05;100.00
34034;BME280;63481;52.588;22.472;2024-03-22T07:17:08;100212.31;;;7.32;100.00
34034;BME280;63481;52.588;22.472;2024-03-22T07:22:09;100213.93;;;7.44;100.00
34034;BME280;63481;52.588;22.472;2024-03-22T07:27:11;100207.81;;;7.41;100.00
34034;BME280;63481;52.588;22.472;2024-03-22T07:32:13;100205.16;;;7.55;100.00
34034;BME280;63481;52.588;22.472;2024-03-22T07:37:15;100215.52;;;7.40;100.00
34034;BME280;63481;52.588;22.472;2024-03-22T07:42:16;100217.11;;;7.54;100.00
34034;BME280;63481;52.588;22.472;2024-03-22T07:47:18;100215.91;;;7.57;100.00
34034;BME280;63481;52.588;22.472;2024-03-22T07:52:21;100207.92;;;7.58;100.00
34034;BME280;63481;52.588;22.472;2024-03-22T07:57:23;100204.08;;;7.72;100.00
34034;BME280;63481;52.588;22.472;2024-03-22T08:02:25;100205.38;;;7.49;100.00
34034;BME280;63481;52.588;22.472;2024-03-22T08:07:27;100203.61;;;7.55;100.00
34034;BME280;63481;52.588;22.472;2024-03-22T08:12:29;100202.20;;;7.84;100.00
34034;BME280;63481;52.588;22.472;2024-03-22T08:17:31;100200.55;;;8.07;100.00
34034;BME280;63481;52.588;22.472;2024-03-22T08:22:32;100196.20;;;7.67;100.00
34034;BME280;63481;52.588;22.472;2024-03-22T08:27:34;100188.13;;;7.66;100.00
34034;BME280;63481;52.588;22.472;2024-03-22T08:32:35;100181.09;;;7.76;100.00
34034;BME280;63481;52.588;22.472;2024-03-22T08:37:38;100175.92;;;7.67;100.00
34034;BME280;63481;52.588;22.472;2024-03-22T08:42:40;100175.98;;;7.42;100.00
34034;BME280;63481;52.588;22.472;2024-03-22T08:47:42;100174.36;;;7.38;100.00
34034;BME280;63481;52.588;22.472;2024-03-22T08:52:44;100179.47;;;7.37;100.00
34034;BME280;63481;52.588;22.472;2024-03-22T08:57:46;100186.75;;;7.52;100.00
34034;BME280;63481;52.588;22.472;2024-03-22T09:02:47;100189.71;;;7.67;100.00
34034;BME280;63481;52.588;22.472;2024-03-22T09:07:49;100187.23;;;7.40;100.00
34034;BME280;63481;52.588;22.472;2024-03-22T09:12:54;100189.54;;;7.21;100.00
34034;BME280;63481;52.588;22.472;2024-03-22T09:17:57;100187.56;;;7.02;100.00
34034;BME280;63481;52.588;22.472;2024-03-22T09:22:58;100190.01;;;6.85;100.00
34034;BME280;63481;52.588;22.472;2024-03-22T09:28:00;100186.33;;;6.78;100.00
34034;BME280;63481;52.588;22.472;2024-03-22T09:33:02;100186.13;;;6.81;100.00
34034;BME280;63481;52.588;22.472;2024-03-22T09:38:05;100187.35;;;6.75;100.00
34034;BME280;63481;52.588;22.472;2024-03-22T09:43:07;100178.28;;;6.99;100.00
34034;BME280;63481;52.588;22.472;2024-03-22T09:48:09;100175.35;;;7.56;100.00
34034;BME280;63481;52.588;22.472;2024-03-22T09:53:11;100173.62;;;7.70;100.00
34034;BME280;63481;52.588;22.472;2024-03-22T09:58:13;100171.33;;;7.46;100.00
34034;BME280;63481;52.588;22.472;2024-03-22T10:03:16;100169.30;;;7.38;100.00
34034;BME280;63481;52.588;22.472;2024-03-22T10:08:18;100167.44;;;7.33;100.00
34034;BME280;63481;52.588;22.472;2024-03-22T10:13:20;100160.95;;;7.41;100.00
34034;BME280;63481;52.588;22.472;2024-03-22T10:18:22;100157.08;;;7.45;100.00
34034;BME280;63481;52.588;22.472;2024-03-22T10:23:25;100147.20;;;7.57;100.00
34034;BME280;63481;52.588;22.472;2024-03-22T10:28:27;100141.46;;;7.90;100.00
34034;BME280;63481;52.588;22.472;2024-03-22T10:33:29;100134.95;;;7.83;100.00
34034;BME280;63481;52.588;22.472;2024-03-22T10:38:32;100139.22;;;7.63;100.00
34034;BME280;63481;52.588;22.472;2024-03-22T10:43:35;100132.85;;;7.55;100.00
34034;BME280;63481;52.588;22.472;2024-03-22T10:48:37;100129.66;;;7.59;100.00
34034;BME280;63481;52.588;22.472;2024-03-22T10:53:42;100125.65;;;7.46;100.00
34034;BME280;63481;52.588;22.472;2024-03-22T10:58:44;100128.59;;;7.49;100.00
34034;BME280;63481;52.588;22.472;2024-03-22T11:03:48;100126.54;;;7.79;100.00
34034;BME280;63481;52.588;22.472;2024-03-22T11:08:51;100126.27;;;8.00;100.00
34034;BME280;63481;52.588;22.472;2024-03-22T11:13:53;100126.21;;;8.04;100.00
34034;BME280;63481;52.588;22.472;2024-03-22T11:18:55;100121.42;;;8.24;100.00
34034;BME280;63481;52.588;22.472;2024-03-22T11:23:57;100115.76;;;8.41;100.00
34034;BME280;63481;52.588;22.472;2024-03-22T11:28:59;100108.36;;;8.58;100.00
34034;BME280;63481;52.588;22.472;2024-03-22T11:34:02;100099.35;;;8.80;100.00
34034;BME280;63481;52.588;22.472;2024-03-22T11:44:43;100081.91;;;8.49;100.00
34034;BME280;63481;52.588;22.472;2024-03-22T11:49:45;100067.98;;;8.44;100.00
34034;BME280;63481;52.588;22.472;2024-03-22T11:54:51;100064.89;;;8.43;100.00
34034;BME280;63481;52.588;22.472;2024-03-22T11:59:59;100060.13;;;8.25;100.00
34034;BME280;63481;52.588;22.472;2024-03-22T12:05:01;100046.98;;;8.49;100.00
34034;BME280;63481;52.588;22.472;2024-03-22T12:10:03;100043.13;;;8.56;100.00
34034;BME280;63481;52.588;22.472;2024-03-22T12:15:05;100035.70;;;8.50;100.00
34034;BME280;63481;52.588;22.472;2024-03-22T12:20:08;100028.82;;;8.32;100.00
34034;BME280;63481;52.588;22.472;2024-03-22T12:25:10;100028.07;;;8.28;100.00
34034;BME280;63481;52.588;22.472;2024-03-22T12:30:13;100024.77;;;8.58;100.00
34034;BME280;63481;52.588;22.472;2024-03-22T12:35:15;100024.31;;;8.30;100.00
34034;BME280;63481;52.588;22.472;2024-03-22T12:40:16;100023.63;;;8.24;100.00
34034;BME280;63481;52.588;22.472;2024-03-22T12:45:18;100018.34;;;8.16;100.00
34034;BME280;63481;52.588;22.472;2024-03-22T12:50:20;100013.48;;;8.16;100.00
34034;BME280;63481;52.588;22.472;2024-03-22T12:55:22;100006.51;;;8.31;100.00
34034;BME280;63481;52.588;22.472;2024-03-22T13:00:24;99999.09;;;8.34;100.00
34034;BME280;63481;52.588;22.472;2024-03-22T13:05:26;99985.68;;;8.33;100.00
34034;BME280;63481;52.588;22.472;2024-03-22T13:10:28;99980.09;;;8.29;100.00
34034;BME280;63481;52.588;22.472;2024-03-22T13:15:30;99970.98;;;8.29;100.00
34034;BME280;63481;52.588;22.472;2024-03-22T13:20:35;99964.16;;;8.31;100.00
34034;BME280;63481;52.588;22.472;2024-03-22T13:25:37;99956.27;;;8.31;100.00
34034;BME280;63481;52.588;22.472;2024-03-22T13:30:38;99954.34;;;8.34;100.00
34034;BME280;63481;52.588;22.472;2024-03-22T13:35:40;99948.64;;;8.32;100.00
34034;BME280;63481;52.588;22.472;2024-03-22T13:40:52;99941.63;;;8.34;100.00
34034;BME280;63481;52.588;22.472;2024-03-22T13:45:54;99928.33;;;8.46;100.00
34034;BME280;63481;52.588;22.472;2024-03-22T13:50:56;99930.80;;;8.52;100.00
34034;BME280;63481;52.588;22.472;2024-03-22T13:55:58;99934.37;;;8.39;100.00
34034;BME280;63481;52.588;22.472;2024-03-22T14:01:00;99921.21;;;8.41;100.00
34034;BME280;63481;52.588;22.472;2024-03-22T14:06:02;99913.26;;;8.49;100.00
34034;BME280;63481;52.588;22.472;2024-03-22T14:11:05;99904.08;;;8.62;100.00
34034;BME280;63481;52.588;22.472;2024-03-22T14:16:06;99892.66;;;8.64;100.00
34034;BME280;63481;52.588;22.472;2024-03-22T14:21:11;99883.89;;;8.83;100.00
34034;BME280;63481;52.588;22.472;2024-03-22T14:26:16;99880.63;;;9.02;100.00
34034;BME280;63481;52.588;22.472;2024-03-22T14:31:18;99876.20;;;8.83;100.00
34034;BME280;63481;52.588;22.472;2024-03-22T14:36:20;99875.52;;;8.73;100.00
34034;BME280;63481;52.588;22.472;2024-03-22T14:41:22;99873.29;;;8.66;100.00
34034;BME280;63481;52.588;22.472;2024-03-22T14:46:24;99863.60;;;8.70;100.00
34034;BME280;63481;52.588;22.472;2024-03-22T14:51:26;99853.75;;;8.74;100.00
34034;BME280;63481;52.588;22.472;2024-03-22T14:56:28;99852.44;;;8.65;100.00
34034;BME280;63481;52.588;22.472;2024-03-22T15:01:30;99851.73;;;8.61;100.00
34034;BME280;63481;52.588;22.472;2024-03-22T15:06:32;99845.06;;;8.58;100.00
34034;BME280;63481;52.588;22.472;2024-03-22T15:11:33;99827.60;;;8.54;100.00
34034;BME280;63481;52.588;22.472;2024-03-22T15:16:36;99823.27;;;8.54;100.00
34034;BME280;63481;52.588;22.472;2024-03-22T15:21:38;99820.55;;;8.45;100.00
34034;BME280;63481;52.588;22.472;2024-03-22T15:26:40;99805.91;;;8.38;100.00
34034;BME280;63481;52.588;22.472;2024-03-22T15:31:41;99793.20;;;8.38;100.00
34034;BME280;63481;52.588;22.472;2024-03-22T15:36:43;99790.76;;;8.35;100.00
34034;BME280;63481;52.588;22.472;2024-03-22T15:41:45;99795.05;;;8.32;100.00
34034;BME280;63481;52.588;22.472;2024-03-22T15:46:47;99791.39;;;8.24;100.00
34034;BME280;63481;52.588;22.472;2024-03-22T15:51:48;99791.07;;;8.20;100.00
34034;BME280;63481;52.588;22.472;2024-03-22T15:56:50;99792.93;;;8.13;100.00
34034;BME280;63481;52.588;22.472;2024-03-22T16:01:51;99786.71;;;8.06;100.00
34034;BME280;63481;52.588;22.472;2024-03-22T16:06:53;99783.44;;;8.01;100.00
34034;BME280;63481;52.588;22.472;2024-03-22T16:11:55;99782.83;;;7.97;100.00
34034;BME280;63481;52.588;22.472;2024-03-22T16:16:57;99788.92;;;7.94;100.00
34034;BME280;63481;52.588;22.472;2024-03-22T16:21:59;99789.77;;;7.88;100.00
34034;BME280;63481;52.588;22.472;2024-03-22T16:27:01;99781.64;;;7.86;100.00
34034;BME280;63481;52.588;22.472;2024-03-22T16:32:02;99775.02;;;7.84;100.00
34034;BME280;63481;52.588;22.472;2024-03-22T16:37:05;99771.33;;;7.81;100.00
34034;BME280;63481;52.588;22.472;2024-03-22T16:42:07;99771.66;;;7.81;100.00
34034;BME280;63481;52.588;22.472;2024-03-22T16:47:09;99775.41;;;7.81;100.00
34034;BME280;63481;52.588;22.472;2024-03-22T16:52:11;99775.64;;;7.78;100.00
34034;BME280;63481;52.588;22.472;2024-03-22T16:57:12;99771.16;;;7.80;100.00
34034;BME280;63481;52.588;22.472;2024-03-22T17:02:14;99767.05;;;7.85;100.00
34034;BME280;63481;52.588;22.472;2024-03-22T17:07:16;99764.92;;;7.85;100.00
34034;BME280;63481;52.588;22.472;2024-03-22T17:12:18;99763.54;;;7.82;100.00
34034;BME280;63481;52.588;22.472;2024-03-22T17:17:20;99764.84;;;7.85;100.00
34034;BME280;63481;52.588;22.472;2024-03-22T17:22:23;99760.80;;;7.83;100.00
34034;BME280;63481;52.588;22.472;2024-03-22T17:27:26;99763.94;;;7.81;100.00
34034;BME280;63481;52.588;22.472;2024-03-22T17:32:27;99767.36;;;7.82;100.00
34034;BME280;63481;52.588;22.472;2024-03-22T17:37:29;99762.77;;;7.63;100.00
34034;BME280;63481;52.588;22.472;2024-03-22T17:42:30;99762.88;;;7.49;100.00
34034;BME280;63481;52.588;22.472;2024-03-22T17:47:32;99752.72;;;7.57;100.00
34034;BME280;63481;52.588;22.472;2024-03-22T17:52:34;99746.05;;;7.55;100.00
34034;BME280;63481;52.588;22.472;2024-03-22T17:57:36;99730.13;;;7.68;100.00
34034;BME280;63481;52.588;22.472;2024-03-22T18:02:38;99717.13;;;7.61;100.00
34034;BME280;63481;52.588;22.472;2024-03-22T18:07:39;99697.42;;;7.60;100.00
34034;BME280;63481;52.588;22.472;2024-03-22T18:12:41;99700.17;;;7.57;100.00
34034;BME280;63481;52.588;22.472;2024-03-22T18:17:42;99695.42;;;7.66;100.00
34034;BME280;63481;52.588;22.472;2024-03-22T18:22:44;99700.91;;;7.72;100.00
34034;BME280;63481;52.588;22.472;2024-03-22T18:27:46;99703.40;;;7.74;100.00
34034;BME280;63481;52.588;22.472;2024-03-22T18:32:48;99705.08;;;7.71;100.00
34034;BME280;63481;52.588;22.472;2024-03-22T18:37:49;99697.02;;;7.69;100.00
34034;BME280;63481;52.588;22.472;2024-03-22T18:42:51;99681.68;;;7.73;100.00
34034;BME280;63481;52.588;22.472;2024-03-22T18:47:53;99664.64;;;7.68;100.00
34034;BME280;63481;52.588;22.472;2024-03-22T18:52:54;99662.39;;;7.72;100.00
34034;BME280;63481;52.588;22.472;2024-03-22T18:57:56;99659.83;;;7.73;100.00
34034;BME280;63481;52.588;22.472;2024-03-22T19:02:57;99659.78;;;7.63;100.00
34034;BME280;63481;52.588;22.472;2024-03-22T19:07:59;99650.39;;;7.68;100.00
34034;BME280;63481;52.588;22.472;2024-03-22T19:13:01;99648.83;;;7.65;100.00
34034;BME280;63481;52.588;22.472;2024-03-22T19:18:03;99639.04;;;7.65;100.00
34034;BME280;63481;52.588;22.472;2024-03-22T19:23:06;99631.12;;;7.67;100.00
34034;BME280;63481;52.588;22.472;2024-03-22T19:28:10;99629.73;;;7.60;100.00
34034;BME280;63481;52.588;22.472;2024-03-22T19:33:11;99618.91;;;7.70;100.00
34034;BME280;63481;52.588;22.472;2024-03-22T19:38:13;99614.02;;;7.73;100.00
34034;BME280;63481;52.588;22.472;2024-03-22T19:43:15;99609.94;;;7.81;100.00
34034;BME280;63481;52.588;22.472;2024-03-22T19:48:16;99617.20;;;7.73;100.00
34034;BME280;63481;52.588;22.472;2024-03-22T19:53:19;99610.83;;;7.68;100.00
34034;BME280;63481;52.588;22.472;2024-03-22T19:58:21;99598.46;;;7.73;100.00
34034;BME280;63481;52.588;22.472;2024-03-22T20:03:23;99596.88;;;7.85;100.00
34034;BME280;63481;52.588;22.472;2024-03-22T20:08:25;99594.45;;;7.90;100.00
34034;BME280;63481;52.588;22.472;2024-03-22T20:13:27;99580.81;;;7.98;100.00
34034;BME280;63481;52.588;22.472;2024-03-22T20:18:29;99571.13;;;8.06;100.00
34034;BME280;63481;52.588;22.472;2024-03-22T20:23:30;99557.52;;;8.11;100.00
34034;BME280;63481;52.588;22.472;2024-03-22T20:28:32;99555.17;;;8.17;100.00
34034;BME280;63481;52.588;22.472;2024-03-22T20:33:34;99559.37;;;8.26;100.00
